Time;durP1;ratioP1;P1;durP2;ratioP2;P2;SDS_P1;SDS_P2;PMS_P1;PMS_P2;Temp;Humidity;BMP_temperature;BMP_pressure;BME280_temperature;BME280_humidity;BME280_pressure;Samples;Min_cycle;Max_cycle;Signal;HPM_P1;HPM_P2
2023/07/01 00:00:54;;;;;;;12.93;11.63;;;17.50;99.90;;;;;;5076242;28;20024;-76
2023/07/01 00:03:20;;;;;;;14.20;12.18;;;17.40;99.90;;;;;;5075602;28;20060;-76
2023/07/01 00:05:46;;;;;;;12.68;11.50;;;17.30;99.90;;;;;;5057926;28;20028;-76
2023/07/01 00:08:11;;;;;;;14.13;11.82;;;17.30;99.90;;;;;;5075545;28;20028;-76
2023/07/01 00:10:37;;;;;;;17.05;12.55;;;17.30;99.90;;;;;;5075789;28;20453;-76
2023/07/01 00:13:03;;;;;;;13.80;12.40;;;17.30;99.90;;;;;;5075465;28;20119;-76
2023/07/01 00:15:28;;;;;;;15.07;13.27;;;17.20;99.90;;;;;;5075689;28;20081;-76
2023/07/01 00:17:54;;;;;;;14.05;12.57;;;17.20;99.90;;;;;;5075729;28;20107;-76
2023/07/01 00:20:26;;;;;;;15.13;13.10;;;17.20;99.90;;;;;;5075008;28;20141;-76
2023/07/01 00:22:52;;;;;;;15.90;12.40;;;17.20;99.90;;;;;;5075496;28;20035;-76
2023/07/01 00:25:18;;;;;;;15.20;13.60;;;17.10;99.90;;;;;;5075220;28;20025;-76
2023/07/01 00:27:44;;;;;;;14.65;13.10;;;17.10;99.90;;;;;;5075664;28;20031;-76
2023/07/01 00:30:10;;;;;;;14.38;13.00;;;17.00;99.90;;;;;;5057379;28;20024;-76
2023/07/01 00:32:36;;;;;;;13.40;12.10;;;17.00;99.90;;;;;;5057366;28;20036;-76
2023/07/01 00:35:01;;;;;;;16.90;12.88;;;17.00;99.90;;;;;;5075045;28;20036;-76
2023/07/01 00:37:28;;;;;;;14.48;12.90;;;16.90;99.90;;;;;;5057306;28;20036;-76
2023/07/01 00:39:53;;;;;;;16.85;14.20;;;17.00;99.90;;;;;;5057273;28;20472;-76
2023/07/01 00:42:19;;;;;;;16.38;14.65;;;16.90;99.90;;;;;;5057169;28;20029;-76
2023/07/01 00:44:44;;;;;;;17.55;13.57;;;16.90;99.90;;;;;;5057219;28;20029;-76
2023/07/01 00:47:10;;;;;;;20.52;14.95;;;16.90;99.90;;;;;;5057354;28;20025;-76
2023/07/01 00:49:38;;;;;;;17.45;14.15;;;16.90;99.90;;;;;;5057105;28;20500;-76
2023/07/01 00:52:05;;;;;;;17.40;14.38;;;16.90;99.90;;;;;;5075324;28;20512;-76
2023/07/01 00:54:31;;;;;;;17.98;14.48;;;16.90;99.90;;;;;;5056777;28;20107;-76
2023/07/01 00:56:57;;;;;;;21.35;14.85;;;16.80;99.90;;;;;;5074878;28;20048;-76
2023/07/01 00:59:23;;;;;;;17.73;15.57;;;16.80;99.90;;;;;;5074539;28;20021;-76
2023/07/01 01:01:51;;;;;;;17.48;14.77;;;16.90;99.90;;;;;;5056906;28;20025;-76
2023/07/01 01:04:29;;;;;;;18.95;14.88;;;16.90;99.90;;;;;;5075025;28;20028;-76
2023/07/01 01:07:22;;;;;;;16.48;14.90;;;16.90;99.90;;;;;;5074711;28;20028;-76
2023/07/01 01:09:55;;;;;;;16.98;14.82;;;16.80;99.90;;;;;;5057299;28;20034;-76
2023/07/01 01:12:25;;;;;;;18.50;14.98;;;16.80;99.90;;;;;;5056923;28;20028;-76
2023/07/01 01:14:52;;;;;;;16.25;14.52;;;16.80;99.90;;;;;;5056630;28;20029;-76
2023/07/01 01:17:20;;;;;;;19.05;15.52;;;16.80;99.90;;;;;;5074240;28;20525;-76
2023/07/01 01:20:13;;;;;;;16.40;14.18;;;16.90;99.90;;;;;;5074181;28;20060;-76
2023/07/01 01:22:49;;;;;;;16.52;14.82;;;16.90;99.90;;;;;;5056459;28;20472;-76
2023/07/01 01:25:24;;;;;;;15.65;14.05;;;16.90;99.90;;;;;;5056218;28;20029;-75
2023/07/01 01:28:00;;;;;;;16.10;14.30;;;16.90;99.90;;;;;;5074455;28;20083;-76
2023/07/01 01:30:31;;;;;;;18.50;14.82;;;16.90;99.90;;;;;;5074335;28;20400;-76
2023/07/01 01:32:57;;;;;;;15.60;13.52;;;16.90;99.90;;;;;;5073436;28;20047;-75
2023/07/01 01:35:23;;;;;;;17.15;13.77;;;16.90;99.90;;;;;;5073880;28;20472;-75
2023/07/01 01:37:55;;;;;;;15.23;13.10;;;17.00;99.90;;;;;;5073839;28;20357;-76
2023/07/01 01:40:35;;;;;;;14.70;12.75;;;17.00;99.90;;;;;;5073873;28;20427;-76
2023/07/01 01:43:17;;;;;;;14.85;13.45;;;17.00;99.90;;;;;;5056373;28;20059;-76
2023/07/01 01:45:43;;;;;;;14.50;12.85;;;17.00;99.90;;;;;;5056193;28;20025;-76
2023/07/01 01:48:11;;;;;;;14.85;13.35;;;17.00;99.90;;;;;;5073743;28;20052;-76
2023/07/01 01:50:39;;;;;;;14.25;12.38;;;17.00;99.90;;;;;;5074727;28;20415;-75
2023/07/01 01:53:05;;;;;;;19.67;13.48;;;17.00;99.90;;;;;;5093227;28;20028;-75
2023/07/01 01:55:31;;;;;;;14.95;12.13;;;17.00;99.90;;;;;;5093008;28;20122;-75
2023/07/01 01:57:59;;;;;;;14.02;12.40;;;17.00;99.90;;;;;;5093841;28;20120;-76
2023/07/01 02:00:25;;;;;;;16.60;13.07;;;17.00;99.90;;;;;;5093783;28;20024;-76
2023/07/01 02:02:50;;;;;;;20.75;13.40;;;17.00;99.90;;;;;;5094014;28;20103;-76
2023/07/01 02:05:16;;;;;;;13.60;11.73;;;17.00;99.90;;;;;;5094091;28;20031;-75
2023/07/01 02:07:41;;;;;;;16.85;11.95;;;17.00;99.90;;;;;;5093956;28;20031;-76
2023/07/01 02:10:08;;;;;;;15.18;13.68;;;17.00;99.90;;;;;;5094397;28;20051;-75
2023/07/01 02:12:33;;;;;;;15.60;12.57;;;17.00;99.90;;;;;;5093898;28;20028;-77
2023/07/01 02:14:59;;;;;;;14.63;12.82;;;17.00;99.90;;;;;;5093052;28;20035;-75
2023/07/01 02:17:25;;;;;;;14.60;13.20;;;17.00;99.90;;;;;;5093875;28;20488;-75
2023/07/01 02:19:51;;;;;;;16.55;12.20;;;17.00;99.90;;;;;;5092585;28;20024;-75
2023/07/01 02:22:16;;;;;;;13.02;11.73;;;17.00;99.90;;;;;;5092426;28;20031;-75
2023/07/01 02:24:42;;;;;;;13.05;11.85;;;17.10;99.90;;;;;;5093822;28;20028;-75
2023/07/01 02:27:08;;;;;;;14.45;12.43;;;17.00;99.90;;;;;;5093751;28;20024;-75
2023/07/01 02:29:34;;;;;;;15.80;13.25;;;17.00;99.90;;;;;;5092437;28;20452;-75
2023/07/01 02:32:00;;;;;;;17.17;12.98;;;17.00;99.90;;;;;;5093816;28;20115;-75
2023/07/01 02:34:27;;;;;;;17.17;13.48;;;17.00;99.90;;;;;;5093770;28;20447;-75
2023/07/01 02:36:54;;;;;;;13.85;12.43;;;17.00;99.90;;;;;;5093404;28;20536;-75
2023/07/01 02:39:19;;;;;;;13.63;12.23;;;17.00;99.90;;;;;;5093862;28;20028;-75
2023/07/01 02:41:45;;;;;;;16.55;12.20;;;17.10;99.90;;;;;;5092592;28;20383;-75
2023/07/01 02:44:13;;;;;;;17.92;12.98;;;17.10;99.90;;;;;;5095388;28;20078;-75
2023/07/01 02:46:39;;;;;;;15.05;13.32;;;17.10;99.90;;;;;;5096424;28;20031;-75
2023/07/01 02:49:05;;;;;;;19.02;14.23;;;17.10;99.90;;;;;;5097649;28;20451;-75
2023/07/01 02:51:30;;;;;;;15.35;11.95;;;17.10;99.90;;;;;;5078436;28;20056;-75
2023/07/01 02:53:56;;;;;;;19.38;13.38;;;17.10;99.90;;;;;;5059254;28;20035;-75
2023/07/01 02:56:21;;;;;;;16.58;13.00;;;17.10;99.90;;;;;;5076915;28;20060;-75
2023/07/01 02:58:47;;;;;;;20.15;12.93;;;17.20;99.90;;;;;;5077164;28;20103;-75
2023/07/01 03:01:13;;;;;;;15.45;13.23;;;17.20;99.90;;;;;;5076811;28;20024;-75
2023/07/01 03:03:39;;;;;;;16.15;12.52;;;17.20;99.90;;;;;;5077051;28;20032;-75
2023/07/01 03:06:05;;;;;;;18.27;12.93;;;17.20;99.90;;;;;;5059371;28;20029;-75
2023/07/01 03:08:31;;;;;;;17.08;12.52;;;17.20;99.90;;;;;;5058976;28;20032;-75
2023/07/01 03:10:56;;;;;;;18.55;13.07;;;17.20;99.90;;;;;;5076897;28;20078;-75
2023/07/01 03:13:22;;;;;;;14.38;12.95;;;17.20;99.90;;;;;;5076866;28;20138;-75
2023/07/01 03:15:48;;;;;;;15.00;13.18;;;17.20;99.90;;;;;;5058868;28;20126;-75
2023/07/01 03:18:13;;;;;;;16.00;14.00;;;17.30;99.90;;;;;;5076762;28;20032;-74
2023/07/01 03:20:39;;;;;;;16.42;13.40;;;17.30;99.90;;;;;;5076705;28;20454;-75
2023/07/01 03:23:04;;;;;;;17.80;13.18;;;17.30;99.90;;;;;;5076576;28;20120;-75
2023/07/01 03:25:31;;;;;;;17.35;12.93;;;17.30;99.90;;;;;;5076872;28;20025;-75
2023/07/01 03:27:56;;;;;;;19.00;15.02;;;17.30;99.90;;;;;;5076544;28;20029;-75
2023/07/01 03:30:29;;;;;;;20.35;14.10;;;17.30;99.90;;;;;;5076573;28;20032;-75
2023/07/01 03:32:54;;;;;;;16.67;14.75;;;17.30;99.90;;;;;;5058703;28;20533;-75
2023/07/01 03:35:20;;;;;;;19.65;16.77;;;17.30;99.90;;;;;;5076434;28;20029;-75
2023/07/01 03:37:46;;;;;;;20.27;16.75;;;17.20;99.90;;;;;;5058397;28;20024;-75
2023/07/01 03:40:12;;;;;;;22.20;17.65;;;17.20;99.90;;;;;;5058425;28;20071;-75
2023/07/01 03:42:41;;;;;;;21.63;16.73;;;17.20;99.90;;;;;;5058895;28;20033;-75
2023/07/01 03:45:12;;;;;;;20.48;18.30;;;17.30;99.90;;;;;;5075963;28;20399;-75
2023/07/01 03:47:42;;;;;;;20.10;17.10;;;17.30;99.90;;;;;;5076296;28;20382;-75
2023/07/01 03:50:08;;;;;;;18.83;16.83;;;17.30;99.90;;;;;;5076077;28;20361;-75
2023/07/01 03:52:36;;;;;;;22.13;17.67;;;17.30;99.90;;;;;;5076104;28;20036;-75
2023/07/01 03:55:04;;;;;;;20.20;18.13;;;17.40;99.90;;;;;;5057277;28;20045;-75
2023/07/01 03:57:30;;;;;;;21.00;17.05;;;17.30;99.90;;;;;;5075770;28;20035;-75
2023/07/01 03:59:55;;;;;;;24.92;18.13;;;17.40;99.90;;;;;;5058039;28;20024;-75
2023/07/01 04:02:21;;;;;;;21.40;19.00;;;17.40;99.90;;;;;;5075878;28;20033;-75
2023/07/01 04:04:47;;;;;;;21.70;17.75;;;17.40;99.90;;;;;;5076184;28;20025;-75
2023/07/01 04:07:13;;;;;;;22.60;18.23;;;17.50;99.90;;;;;;5075852;28;20384;-75
2023/07/01 04:09:38;;;;;;;21.63;18.42;;;17.50;99.90;;;;;;5057804;28;20024;-75
2023/07/01 04:12:05;;;;;;;22.05;17.90;;;17.50;99.90;;;;;;5058046;28;20025;-75
2023/07/01 04:14:30;;;;;;;18.98;16.77;;;17.50;99.90;;;;;;5075917;28;20021;-75
2023/07/01 04:16:56;;;;;;;18.02;16.20;;;17.60;99.90;;;;;;5075702;28;20074;-74
2023/07/01 04:19:22;;;;;;;18.67;15.75;;;17.60;99.90;;;;;;5075351;28;20395;-74
2023/07/01 04:21:48;;;;;;;18.30;16.17;;;17.70;99.90;;;;;;5075541;28;20025;-74
2023/07/01 04:24:14;;;;;;;18.10;16.20;;;17.70;99.90;;;;;;5057619;28;20020;-74
2023/07/01 04:26:41;;;;;;;20.13;16.23;;;17.80;99.90;;;;;;5075287;28;20031;-72
2023/07/01 04:29:09;;;;;;;20.20;15.75;;;17.80;99.90;;;;;;5075458;28;20020;-74
2023/07/01 04:31:35;;;;;;;21.83;15.80;;;17.90;99.90;;;;;;5075485;28;20031;-74
2023/07/01 04:34:00;;;;;;;19.95;16.15;;;17.90;99.90;;;;;;5075056;28;20107;-72
2023/07/01 04:36:26;;;;;;;17.70;15.05;;;18.00;99.90;;;;;;5075209;28;20029;-72
2023/07/01 04:38:51;;;;;;;18.65;14.63;;;18.00;99.90;;;;;;5057269;28;20360;-71
2023/07/01 04:41:17;;;;;;;17.10;14.68;;;18.00;99.90;;;;;;5057213;28;20115;-74
2023/07/01 04:43:43;;;;;;;19.58;14.48;;;18.10;99.90;;;;;;5075151;28;20090;-74
2023/07/01 04:46:08;;;;;;;16.92;15.13;;;18.10;99.90;;;;;;5074817;28;20028;-75
2023/07/01 04:48:34;;;;;;;16.45;14.13;;;18.10;99.90;;;;;;5074672;28;20025;-74
2023/07/01 04:50:59;;;;;;;19.80;14.95;;;18.10;99.90;;;;;;5082302;28;20050;-74
2023/07/01 04:53:25;;;;;;;15.98;14.18;;;18.10;99.90;;;;;;5095428;28;20039;-74
2023/07/01 04:55:51;;;;;;;16.70;13.85;;;18.10;99.90;;;;;;5095185;28;20020;-74
2023/07/01 04:58:17;;;;;;;18.77;14.02;;;18.10;99.90;;;;;;5095117;28;20031;-74
2023/07/01 05:00:42;;;;;;;16.65;14.25;;;18.20;99.90;;;;;;5093459;28;20038;-74
2023/07/01 05:03:08;;;;;;;15.23;13.43;;;18.20;99.90;;;;;;5094673;28;20032;-69
2023/07/01 05:05:34;;;;;;;15.82;14.18;;;18.30;99.90;;;;;;5094441;28;20024;-66
2023/07/01 05:07:59;;;;;;;16.55;13.90;;;18.30;99.90;;;;;;5095429;28;20028;-66
2023/07/01 05:10:25;;;;;;;16.88;14.23;;;18.30;99.90;;;;;;5094850;28;20027;-66
2023/07/01 05:12:50;;;;;;;17.40;14.00;;;18.40;99.90;;;;;;5093549;28;20119;-66
2023/07/01 05:15:16;;;;;;;18.30;13.70;;;18.40;99.90;;;;;;5094967;28;20039;-66
2023/07/01 05:17:43;;;;;;;15.98;14.40;;;18.40;99.90;;;;;;5095008;28;20114;-66
2023/07/01 05:20:10;;;;;;;17.02;14.57;;;18.40;99.90;;;;;;5094417;28;20029;-66
2023/07/01 05:22:35;;;;;;;15.90;13.52;;;18.60;99.90;;;;;;5094373;28;20369;-67
2023/07/01 05:25:02;;;;;;;16.85;13.65;;;18.60;99.90;;;;;;5090563;28;20032;-67
2023/07/01 05:27:28;;;;;;;15.13;13.05;;;18.70;99.90;;;;;;5079706;28;20468;-67
2023/07/01 05:29:53;;;;;;;16.85;13.00;;;18.70;99.90;;;;;;5095066;28;20133;-66
2023/07/01 05:32:19;;;;;;;14.77;13.07;;;18.70;99.90;;;;;;5082266;28;20452;-67
2023/07/01 05:34:45;;;;;;;16.30;12.27;;;18.80;99.90;;;;;;5073823;28;20456;-67
2023/07/01 05:37:10;;;;;;;17.15;13.00;;;18.90;99.90;;;;;;5073748;28;20146;-67
2023/07/01 05:39:36;;;;;;;17.52;12.43;;;18.90;99.90;;;;;;5078052;28;20035;-66
2023/07/01 05:42:02;;;;;;;15.13;12.60;;;18.90;99.90;;;;;;5092852;28;20040;-71
2023/07/01 05:44:28;;;;;;;19.42;13.45;;;18.80;99.90;;;;;;5092918;28;20028;-71
2023/07/01 05:46:54;;;;;;;15.38;12.73;;;18.90;99.90;;;;;;5094196;28;20028;-71
2023/07/01 05:49:19;;;;;;;13.57;12.18;;;18.90;99.90;;;;;;5092844;28;20524;-71
2023/07/01 05:51:45;;;;;;;16.42;12.27;;;18.90;99.90;;;;;;5074009;28;20064;-71
2023/07/01 05:54:11;;;;;;;16.17;12.40;;;19.00;99.90;;;;;;5073884;28;20016;-71
2023/07/01 05:56:36;;;;;;;14.25;11.80;;;19.00;99.90;;;;;;5073827;28;20025;-71
2023/07/01 05:59:02;;;;;;;15.50;12.30;;;19.00;99.90;;;;;;5055788;28;20025;-72
2023/07/01 06:01:29;;;;;;;15.10;12.80;;;19.20;99.90;;;;;;5055948;28;20473;-72
2023/07/01 06:03:54;;;;;;;14.38;11.88;;;19.30;99.90;;;;;;5055826;28;20024;-71
2023/07/01 06:06:21;;;;;;;14.32;11.70;;;19.40;99.90;;;;;;5055648;28;20033;-71
2023/07/01 06:08:47;;;;;;;13.40;12.00;;;19.50;99.90;;;;;;5073645;28;20166;-71
2023/07/01 06:11:13;;;;;;;15.77;11.50;;;19.50;99.90;;;;;;5055726;28;20024;-74
2023/07/01 06:13:47;;;;;;;15.38;11.60;;;19.60;99.90;;;;;;5073786;28;20052;-71
2023/07/01 06:16:15;;;;;;;15.07;10.98;;;19.60;99.90;;;;;;5055604;28;20468;-70
2023/07/01 06:18:41;;;;;;;15.05;10.85;;;19.60;99.90;;;;;;5073107;28;20159;-74
2023/07/01 06:21:08;;;;;;;14.27;11.27;;;19.70;99.90;;;;;;5055606;28;20067;-57
2023/07/01 06:23:35;;;;;;;14.90;11.05;;;19.70;99.90;;;;;;5055507;28;20098;-57
2023/07/01 06:26:01;;;;;;;13.20;10.93;;;19.70;99.90;;;;;;5073544;28;20107;-57
2023/07/01 06:28:26;;;;;;;15.18;10.55;;;19.70;99.90;;;;;;5073452;28;20049;-74
2023/07/01 06:30:52;;;;;;;12.20;10.73;;;19.80;99.90;;;;;;5073093;28;20511;-75
2023/07/01 06:33:17;;;;;;;11.68;9.77;;;19.90;99.90;;;;;;5055474;28;20029;-75
2023/07/01 06:35:43;;;;;;;11.55;10.35;;;20.10;99.90;;;;;;5073532;28;20035;-75
2023/07/01 06:38:09;;;;;;;12.50;10.63;;;20.20;99.90;;;;;;5073377;28;20384;-77
2023/07/01 06:40:35;;;;;;;13.13;10.75;;;20.30;99.90;;;;;;5055580;28;20028;-77
2023/07/01 06:43:02;;;;;;;11.60;10.43;;;20.40;99.90;;;;;;5073490;28;20032;-75
2023/07/01 06:45:29;;;;;;;12.82;10.50;;;20.40;99.90;;;;;;5055433;28;20024;-76
2023/07/01 06:47:55;;;;;;;12.40;9.98;;;20.40;99.90;;;;;;5055748;28;20471;-76
2023/07/01 06:50:20;;;;;;;14.02;10.70;;;20.40;99.90;;;;;;5069739;28;20051;-78
2023/07/01 06:52:46;;;;;;;12.80;10.07;;;20.40;99.90;;;;;;5093829;28;20028;-75
2023/07/01 06:55:15;;;;;;;13.93;10.18;;;20.30;99.90;;;;;;5092821;28;20024;-75
2023/07/01 06:57:41;;;;;;;14.65;10.73;;;20.30;99.90;;;;;;5092358;28;20375;-77
2023/07/01 07:00:10;;;;;;;11.73;10.40;;;20.30;99.90;;;;;;5092150;28;20039;-73
2023/07/01 07:02:36;;;;;;;13.27;10.17;;;20.20;99.90;;;;;;5092058;28;20032;-77
2023/07/01 07:05:03;;;;;;;13.52;10.88;;;20.20;99.90;;;;;;5093531;28;20020;-77
2023/07/01 07:07:29;;;;;;;11.52;10.00;;;20.20;99.90;;;;;;5093407;28;20103;-77
2023/07/01 07:09:54;;;;;;;11.70;9.85;;;20.20;99.90;;;;;;5092054;28;20067;-78
2023/07/01 07:12:20;;;;;;;12.77;10.18;;;20.20;99.90;;;;;;5093276;28;20029;-74
2023/07/01 07:14:46;;;;;;;13.05;9.77;;;20.20;99.90;;;;;;5093247;28;20463;-73
2023/07/01 07:17:11;;;;;;;11.73;9.80;;;20.30;99.90;;;;;;5091893;28;20077;-73
2023/07/01 07:19:37;;;;;;;13.00;9.93;;;20.30;99.90;;;;;;5093113;28;20032;-61
2023/07/01 07:22:04;;;;;;;12.43;10.15;;;20.30;99.90;;;;;;5074725;28;20039;-60
2023/07/01 07:24:29;;;;;;;11.75;9.88;;;20.30;99.90;;;;;;5093151;28;20031;-59
2023/07/01 07:26:57;;;;;;;13.35;10.63;;;20.30;99.90;;;;;;5093201;28;20020;-61
2023/07/01 07:29:33;;;;;;;15.73;10.40;;;20.40;99.90;;;;;;5093399;28;20020;-77
2023/07/01 07:31:59;;;;;;;11.55;10.15;;;20.40;99.90;;;;;;5095524;28;20028;-74
2023/07/01 07:34:25;;;;;;;13.50;10.35;;;20.50;99.90;;;;;;5095410;28;20024;-73
2023/07/01 07:36:51;;;;;;;16.50;10.55;;;20.60;99.90;;;;;;5096500;28;20035;-72
2023/07/01 07:39:17;;;;;;;19.15;10.98;;;20.70;99.90;;;;;;5096924;28;20024;-73
2023/07/01 07:41:44;;;;;;;15.48;9.73;;;20.80;99.90;;;;;;5095160;28;20056;-73
2023/07/01 07:44:10;;;;;;;11.75;9.90;;;20.90;99.90;;;;;;5095226;28;20082;-73
2023/07/01 07:46:36;;;;;;;16.25;10.65;;;21.00;99.90;;;;;;5095625;28;20030;-73
2023/07/01 07:49:02;;;;;;;12.23;9.90;;;21.10;99.90;;;;;;5096464;28;20028;-74
2023/07/01 07:51:28;;;;;;;12.30;10.13;;;21.10;99.90;;;;;;5078304;28;20048;-70
2023/07/01 07:53:54;;;;;;;14.90;9.68;;;21.20;99.90;;;;;;5058067;28;20050;-60
2023/07/01 07:56:20;;;;;;;11.50;9.65;;;21.50;99.90;;;;;;5075556;28;20111;-60
2023/07/01 07:58:45;;;;;;;14.60;10.57;;;21.70;99.90;;;;;;5075720;28;20056;-60
2023/07/01 08:01:11;;;;;;;15.45;10.88;;;21.80;99.90;;;;;;5075916;28;20028;-61
2023/07/01 08:03:38;;;;;;;16.23;11.25;;;22.00;99.90;;;;;;5057835;28;20504;-61
2023/07/01 08:06:04;;;;;;;14.18;10.70;;;22.20;99.90;;;;;;5075997;28;20078;-59
2023/07/01 08:08:30;;;;;;;12.98;10.88;;;22.40;99.90;;;;;;5041276;28;20028;-60
2023/07/01 08:10:56;;;;;;;20.02;12.15;;;22.50;99.90;;;;;;5075687;28;20032;-60
2023/07/01 08:13:22;;;;;;;13.48;11.25;;;22.50;99.90;;;;;;5075710;28;20032;-60
2023/07/01 08:15:47;;;;;;;17.90;11.90;;;22.50;99.90;;;;;;5075623;28;20463;-60
2023/07/01 08:18:13;;;;;;;12.43;11.13;;;22.50;99.90;;;;;;5075610;28;20475;-60
2023/07/01 08:20:39;;;;;;;13.30;11.15;;;22.40;99.90;;;;;;5075287;28;20036;-75
2023/07/01 08:23:05;;;;;;;16.75;11.52;;;22.20;99.90;;;;;;5057826;28;20032;-72
2023/07/01 08:25:31;;;;;;;14.70;11.23;;;22.00;99.90;;;;;;5075063;28;20435;-72
2023/07/01 08:27:58;;;;;;;13.55;11.07;;;22.10;99.90;;;;;;5075654;28;20024;-73
2023/07/01 08:30:24;;;;;;;13.82;10.93;;;22.30;99.90;;;;;;5075182;28;20048;-72
2023/07/01 08:32:49;;;;;;;18.00;11.75;;;22.40;99.90;;;;;;5075280;28;20056;-74
2023/07/01 08:35:15;;;;;;;20.10;11.95;;;22.50;99.90;;;;;;5075485;28;20043;-72
2023/07/01 08:37:41;;;;;;;18.90;10.32;;;22.50;99.90;;;;;;5074945;28;20029;-72
2023/07/01 08:40:10;;;;;;;14.02;10.57;;;22.30;99.90;;;;;;5075024;28;20025;-72
2023/07/01 08:42:42;;;;;;;13.27;10.70;;;22.20;99.90;;;;;;5056827;28;20131;-72
2023/07/01 08:45:09;;;;;;;14.98;10.65;;;22.20;99.90;;;;;;5057103;28;20033;-72
2023/07/01 08:47:35;;;;;;;16.27;11.35;;;22.30;99.90;;;;;;5057045;28;20025;-72
2023/07/01 08:50:05;;;;;;;18.63;12.48;;;22.40;99.90;;;;;;5065778;28;20173;-72
2023/07/01 08:52:40;;;;;;;13.80;11.63;;;22.50;99.90;;;;;;5095492;28;20032;-72
2023/07/01 08:55:08;;;;;;;15.57;11.88;;;22.60;99.90;;;;;;5094163;28;20020;-72
2023/07/01 08:57:34;;;;;;;16.23;12.35;;;22.70;99.90;;;;;;5095437;28;20031;-72
2023/07/01 09:00:00;;;;;;;14.38;11.90;;;22.60;99.90;;;;;;5093817;28;20020;-72
2023/07/01 09:02:26;;;;;;;15.60;12.20;;;22.60;99.90;;;;;;5093634;28;20066;-72
2023/07/01 09:04:52;;;;;;;16.33;12.13;;;22.70;99.90;;;;;;5094984;28;20032;-72
2023/07/01 09:07:17;;;;;;;16.63;11.88;;;22.70;99.90;;;;;;5093554;28;20025;-72
2023/07/01 09:09:44;;;;;;;14.10;11.82;;;22.90;99.90;;;;;;5094459;28;20017;-73
2023/07/01 09:12:10;;;;;;;17.00;12.85;;;22.90;99.90;;;;;;5094821;28;20035;-72
2023/07/01 09:15:08;;;;;;;17.05;12.13;;;22.90;99.90;;;;;;5093418;28;20031;-72
2023/07/01 09:17:39;;;;;;;16.73;12.30;;;22.80;99.90;;;;;;5049730;28;20097;-72
2023/07/01 09:20:13;;;;;;;16.02;12.10;;;22.90;99.90;;;;;;5094477;28;20039;-63
2023/07/01 09:22:42;;;;;;;16.20;12.55;;;22.90;99.90;;;;;;5093265;28;20123;-64
2023/07/01 09:25:08;;;;;;;14.73;11.75;;;23.00;99.90;;;;;;5094562;28;20031;-62
2023/07/01 09:27:40;;;;;;;15.80;11.77;;;23.00;99.90;;;;;;5093218;28;20375;-62
2023/07/01 09:30:26;;;;;;;17.48;12.73;;;23.10;99.90;;;;;;5094508;28;20067;-62
2023/07/01 09:33:08;;;;;;;16.73;12.52;;;23.20;99.90;;;;;;5094482;28;20118;-62
2023/07/01 09:35:42;;;;;;;16.05;12.75;;;23.20;99.90;;;;;;5093635;28;20117;-62
2023/07/01 09:38:08;;;;;;;15.38;12.07;;;23.30;99.90;;;;;;5093117;28;20031;-62
2023/07/01 09:40:34;;;;;;;15.02;12.48;;;23.30;99.90;;;;;;5093003;28;20028;-62
2023/07/01 09:42:59;;;;;;;17.17;11.40;;;23.50;99.90;;;;;;5094186;28;20119;-62
2023/07/01 09:45:26;;;;;;;14.73;11.90;;;23.60;99.90;;;;;;5094202;28;20024;-63
2023/07/01 09:47:52;;;;;;;19.60;12.48;;;23.70;99.90;;;;;;5092964;28;20020;-62
2023/07/01 09:50:21;;;;;;;15.45;11.85;;;23.60;99.90;;;;;;5085480;28;20048;-63
2023/07/01 09:52:48;;;;;;;16.17;11.70;;;23.50;99.90;;;;;;5073049;28;20035;-62
2023/07/01 09:55:14;;;;;;;17.17;12.43;;;23.50;99.90;;;;;;5073786;28;20024;-62
2023/07/01 09:57:41;;;;;;;16.13;12.20;;;23.50;99.90;;;;;;5055731;28;20111;-72
2023/07/01 10:00:10;;;;;;;17.77;12.13;;;23.60;99.90;;;;;;5056452;28;20021;-72
2023/07/01 10:02:35;;;;;;;15.32;12.65;;;23.60;99.90;;;;;;5073240;28;20063;-72
2023/07/01 10:05:01;;;;;;;17.90;12.95;;;23.60;99.90;;;;;;5073890;28;20037;-73
2023/07/01 10:07:27;;;;;;;17.00;12.82;;;23.70;99.90;;;;;;5073615;28;20429;-72
2023/07/01 10:09:53;;;;;;;15.30;11.57;;;23.50;99.90;;;;;;5073357;28;20032;-73
2023/07/01 10:12:20;;;;;;;16.17;12.38;;;23.40;99.90;;;;;;5073407;28;20391;-72
2023/07/01 10:14:50;;;;;;;16.85;12.25;;;23.30;99.90;;;;;;5055560;28;20029;-72
2023/07/01 10:17:17;;;;;;;16.35;12.38;;;23.20;99.90;;;;;;5055557;28;20024;-72
2023/07/01 10:19:46;;;;;;;17.55;12.43;;;23.10;99.90;;;;;;5055522;28;20119;-73
2023/07/01 10:22:31;;;;;;;;;;;23.30;99.90;;;;;;5073908;28;20051;-72
2023/07/01 10:25:05;;;;;;;14.43;11.93;;;23.30;99.90;;;;;;5073508;28;19904;-72
2023/07/01 10:27:40;;;;;;;15.95;11.93;;;23.20;99.90;;;;;;5073512;28;20021;-73
2023/07/01 10:30:08;;;;;;;16.85;11.73;;;23.20;99.90;;;;;;5055409;28;20055;-73
2023/07/01 10:32:34;;;;;;;13.90;11.82;;;23.20;99.90;;;;;;5073498;28;20038;-73
2023/07/01 10:35:00;;;;;;;15.48;12.27;;;23.10;99.90;;;;;;5073408;28;20028;-73
2023/07/01 10:37:27;;;;;;;16.50;12.40;;;22.90;99.90;;;;;;5073205;28;20033;-72
2023/07/01 10:39:54;;;;;;;15.38;12.32;;;22.80;99.90;;;;;;5073360;28;20127;-73
2023/07/01 10:42:31;;;;;;;15.43;12.30;;;22.80;99.90;;;;;;5055269;28;20171;-72
2023/07/01 10:45:11;;;;;;;18.45;12.48;;;22.90;99.90;;;;;;5073311;28;20021;-73
2023/07/01 10:47:44;;;;;;;15.00;11.55;;;22.90;99.90;;;;;;5055471;28;20586;-72
2023/07/01 10:50:19;;;;;;;17.00;12.32;;;23.00;99.90;;;;;;5073177;28;20083;-58
2023/07/01 10:52:56;;;;;;;14.93;12.75;;;23.10;99.90;;;;;;5073587;28;20528;-59
2023/07/01 10:55:38;;;;;;;15.43;11.80;;;23.20;99.90;;;;;;5073239;28;20036;-59
2023/07/01 10:58:26;;;;;;;16.77;12.48;;;23.20;99.90;;;;;;5073520;28;20446;-60
2023/07/01 11:00:56;;;;;;;18.17;13.50;;;23.30;99.90;;;;;;5055661;28;20078;-76
2023/07/01 11:06:10;;;;;;;14.23;11.48;;;23.20;99.90;;;;;;5076939;28;20029;-80
2023/07/01 11:08:53;;;;;;;15.68;12.02;;;23.50;99.90;;;;;;5058951;28;20024;-70
2023/07/01 11:11:24;;;;;;;15.57;12.88;;;24.00;99.90;;;;;;5059262;28;20025;-71
2023/07/01 11:14:03;;;;;;;15.43;12.48;;;24.40;99.90;;;;;;5077119;28;20047;-72
2023/07/01 11:16:29;;;;;;;15.03;12.53;;;24.50;99.90;;;;;;5058894;28;20032;-72
2023/07/01 11:18:59;;;;;;;14.75;13.13;;;24.70;99.90;;;;;;5058955;28;20437;-72
2023/07/01 11:21:27;;;;;;;16.17;13.38;;;24.70;99.90;;;;;;5058855;28;20024;-72
2023/07/01 11:24:05;;;;;;;15.20;13.07;;;24.80;99.90;;;;;;5076633;28;20538;-79
2023/07/01 11:26:33;;;;;;;15.13;12.93;;;24.70;99.90;;;;;;5076710;28;20035;-70
2023/07/01 11:29:00;;;;;;;16.25;13.90;;;24.60;99.90;;;;;;5059505;28;20115;-74
2023/07/01 11:31:31;;;;;;;16.60;12.95;;;24.50;99.90;;;;;;5076684;28;20033;-77
2023/07/01 11:33:58;;;;;;;18.20;12.45;;;24.60;99.90;;;;;;5058536;28;20056;-70
2023/07/01 11:36:48;;;;;;;17.55;12.32;;;24.50;99.90;;;;;;5076402;28;20021;-72
2023/07/01 11:39:18;;;;;;;15.77;12.45;;;24.30;99.90;;;;;;5064606;28;20040;-70
2023/07/01 11:41:53;;;;;;;16.42;13.18;;;24.10;99.90;;;;;;5076119;28;20108;-72
2023/07/01 11:44:24;;;;;;;15.73;12.75;;;24.10;99.90;;;;;;5076401;28;20027;-73
2023/07/01 11:46:52;;;;;;;15.90;13.45;;;24.10;99.90;;;;;;5075897;28;20024;-72
2023/07/01 11:49:30;;;;;;;17.65;13.98;;;24.00;99.90;;;;;;5057791;28;20052;-72
2023/07/01 11:52:06;;;;;;;19.33;13.88;;;24.00;99.90;;;;;;5076102;28;20033;-74
2023/07/01 11:54:47;;;;;;;15.73;13.73;;;23.90;99.90;;;;;;5058192;28;20025;-76
2023/07/01 11:57:21;;;;;;;18.40;14.68;;;23.80;99.90;;;;;;5058208;28;20039;-72
2023/07/01 11:59:52;;;;;;;18.55;15.38;;;23.70;99.90;;;;;;5075876;28;20035;-73
2023/07/01 12:02:26;;;;;;;19.83;14.75;;;23.50;99.90;;;;;;5076038;28;20482;-72
2023/07/01 12:04:52;;;;;;;21.20;15.05;;;23.30;99.90;;;;;;5075664;28;20398;-73
2023/07/01 12:07:17;;;;;;;17.55;14.30;;;23.20;99.90;;;;;;5075881;28;20021;-75
2023/07/01 12:09:45;;;;;;;21.13;14.77;;;23.20;99.90;;;;;;5058034;28;20479;-76
2023/07/01 12:12:14;;;;;;;18.38;14.57;;;23.40;99.90;;;;;;5057865;28;20158;-75
2023/07/01 12:14:40;;;;;;;;;;;23.30;99.90;;;;;;5075817;28;20047;-75
2023/07/01 12:17:05;;;;;;;18.58;14.60;;;23.30;99.90;;;;;;5057078;28;20332;-76
2023/07/01 12:19:32;;;;;;;21.20;14.20;;;23.40;99.90;;;;;;5057822;28;20032;-75
2023/07/01 12:21:59;;;;;;;19.42;14.07;;;23.40;99.90;;;;;;5075508;28;20090;-75
2023/07/01 12:24:30;;;;;;;17.77;13.85;;;23.40;99.90;;;;;;5057581;28;20024;-75
2023/07/01 12:27:00;;;;;;;16.98;12.85;;;23.50;99.90;;;;;;5057858;28;20449;-76
2023/07/01 12:29:27;;;;;;;16.77;13.40;;;23.50;99.90;;;;;;5058064;28;20120;-75
2023/07/01 12:31:59;;;;;;;16.20;12.98;;;23.50;99.90;;;;;;5057428;28;20032;-76
2023/07/01 12:34:25;;;;;;;15.70;12.88;;;23.50;99.90;;;;;;5075139;28;20090;-75